sensor_id;sensor_type;location;lat;lon;timestamp;pressure;altitude;pressure_sealevel;temperature;humidity
13124;BME280;6627;50.920;12.050;2022-07-23T00:00:24;99326.53;;;20.95;70.33
13124;BME280;6627;50.920;12.050;2022-07-23T00:02:51;99334.88;;;21.30;69.29
13124;BME280;6627;50.920;12.050;2022-07-23T00:05:19;99304.69;;;20.86;69.53
13124;BME280;6627;50.920;12.050;2022-07-23T00:07:47;99263.66;;;20.21;71.11
13124;BME280;6627;50.920;12.050;2022-07-23T00:10:16;99285.88;;;20.28;71.83
13124;BME280;6627;50.920;12.050;2022-07-23T00:12:43;99281.56;;;19.87;73.40
13124;BME280;6627;50.920;12.050;2022-07-23T00:15:10;99289.50;;;19.88;73.87
13124;BME280;6627;50.920;12.050;2022-07-23T00:17:37;99337.56;;;20.23;74.32
13124;BME280;6627;50.920;12.050;2022-07-23T00:20:06;99309.56;;;20.05;73.67
13124;BME280;6627;50.920;12.050;2022-07-23T00:22:34;99321.28;;;20.02;74.20
13124;BME280;6627;50.920;12.050;2022-07-23T00:25:03;99330.19;;;20.11;74.18
13124;BME280;6627;50.920;12.050;2022-07-23T00:27:30;99302.59;;;19.79;74.63
13124;BME280;6627;50.920;12.050;2022-07-23T00:29:57;99378.38;;;20.61;73.47
13124;BME280;6627;50.920;12.050;2022-07-23T00:32:25;99326.19;;;20.36;72.63
13124;BME280;6627;50.920;12.050;2022-07-23T00:34:52;99344.41;;;21.01;71.79
13124;BME280;6627;50.920;12.050;2022-07-23T00:37:19;99328.75;;;21.05;70.42
13124;BME280;6627;50.920;12.050;2022-07-23T00:39:46;99309.47;;;20.89;69.94
13124;BME280;6627;50.920;12.050;2022-07-23T00:42:15;99318.34;;;20.98;69.66
13124;BME280;6627;50.920;12.050;2022-07-23T00:44:42;99329.47;;;21.02;70.03
13124;BME280;6627;50.920;12.050;2022-07-23T00:47:09;99314.53;;;20.71;71.01
13124;BME280;6627;50.920;12.050;2022-07-23T00:49:37;99314.44;;;20.83;71.14
13124;BME280;6627;50.920;12.050;2022-07-23T00:52:04;99322.34;;;21.32;69.49
13124;BME280;6627;50.920;12.050;2022-07-23T00:54:32;99317.91;;;21.44;68.34
13124;BME280;6627;50.920;12.050;2022-07-23T00:56:59;99278.94;;;21.29;68.50
13124;BME280;6627;50.920;12.050;2022-07-23T00:59:27;99258.97;;;20.81;69.34
13124;BME280;6627;50.920;12.050;2022-07-23T01:01:54;99243.50;;;20.61;70.47
13124;BME280;6627;50.920;12.050;2022-07-23T01:04:22;99214.16;;;20.21;71.65
13124;BME280;6627;50.920;12.050;2022-07-23T01:06:49;99206.22;;;19.88;72.88
13124;BME280;6627;50.920;12.050;2022-07-23T01:09:17;99215.69;;;19.90;73.54
13124;BME280;6627;50.920;12.050;2022-07-23T01:11:45;99210.88;;;19.59;75.34
13124;BME280;6627;50.920;12.050;2022-07-23T01:14:15;99240.50;;;19.78;75.47
13124;BME280;6627;50.920;12.050;2022-07-23T01:16:46;99277.97;;;20.55;73.36
13124;BME280;6627;50.920;12.050;2022-07-23T01:19:15;99277.41;;;20.65;72.61
13124;BME280;6627;50.920;12.050;2022-07-23T01:21:46;99236.09;;;19.89;74.08
13124;BME280;6627;50.920;12.050;2022-07-23T01:24:16;99238.00;;;19.73;75.51
13124;BME280;6627;50.920;12.050;2022-07-23T01:26:46;99308.94;;;20.52;74.64
13124;BME280;6627;50.920;12.050;2022-07-23T01:29:14;99307.22;;;21.26;71.80
13124;BME280;6627;50.920;12.050;2022-07-23T01:31:42;99293.22;;;21.51;69.41
13124;BME280;6627;50.920;12.050;2022-07-23T01:34:10;99289.94;;;21.61;68.34
13124;BME280;6627;50.920;12.050;2022-07-23T01:36:37;99235.38;;;21.00;68.97
13124;BME280;6627;50.920;12.050;2022-07-23T01:39:07;99236.66;;;20.71;70.42
13124;BME280;6627;50.920;12.050;2022-07-23T01:41:35;99267.09;;;20.94;70.42
13124;BME280;6627;50.920;12.050;2022-07-23T01:44:02;99243.31;;;20.85;70.51
13124;BME280;6627;50.920;12.050;2022-07-23T01:46:30;99254.50;;;20.92;70.41
13124;BME280;6627;50.920;12.050;2022-07-23T01:48:57;99244.97;;;21.06;69.91
13124;BME280;6627;50.920;12.050;2022-07-23T01:51:24;99222.72;;;20.79;70.67
13124;BME280;6627;50.920;12.050;2022-07-23T01:53:51;99230.69;;;20.84;70.70
13124;BME280;6627;50.920;12.050;2022-07-23T01:56:18;99225.53;;;20.99;70.10
13124;BME280;6627;50.920;12.050;2022-07-23T01:58:48;99227.13;;;20.84;70.88
13124;BME280;6627;50.920;12.050;2022-07-23T02:01:15;99242.13;;;21.02;70.63
13124;BME280;6627;50.920;12.050;2022-07-23T02:03:42;99260.03;;;21.28;69.98
13124;BME280;6627;50.920;12.050;2022-07-23T02:06:10;99221.66;;;21.19;69.36
13124;BME280;6627;50.920;12.050;2022-07-23T02:08:37;99238.63;;;21.21;69.07
13124;BME280;6627;50.920;12.050;2022-07-23T02:11:04;99229.22;;;21.22;68.76
13124;BME280;6627;50.920;12.050;2022-07-23T02:13:31;99222.31;;;20.97;69.97
13124;BME280;6627;50.920;12.050;2022-07-23T02:15:59;99218.56;;;20.70;70.94
13124;BME280;6627;50.920;12.050;2022-07-23T02:18:27;99241.00;;;20.87;71.55
13124;BME280;6627;50.920;12.050;2022-07-23T02:20:54;99251.63;;;21.05;70.73
13124;BME280;6627;50.920;12.050;2022-07-23T02:23:21;99266.69;;;21.27;69.91
13124;BME280;6627;50.920;12.050;2022-07-23T02:25:48;99251.53;;;21.01;70.38
13124;BME280;6627;50.920;12.050;2022-07-23T02:28:15;99222.38;;;20.65;70.98
13124;BME280;6627;50.920;12.050;2022-07-23T02:30:42;99242.22;;;20.42;72.18
13124;BME280;6627;50.920;12.050;2022-07-23T02:33:10;99275.56;;;20.69;71.98
13124;BME280;6627;50.920;12.050;2022-07-23T02:35:38;99313.22;;;21.12;70.87
13124;BME280;6627;50.920;12.050;2022-07-23T02:38:05;99296.22;;;21.26;70.15
13124;BME280;6627;50.920;12.050;2022-07-23T02:40:32;99287.44;;;21.05;70.38
13124;BME280;6627;50.920;12.050;2022-07-23T02:42:59;99284.31;;;21.22;69.74
13124;BME280;6627;50.920;12.050;2022-07-23T02:45:26;99305.06;;;21.51;69.14
13124;BME280;6627;50.920;12.050;2022-07-23T02:47:53;99271.75;;;21.25;68.80
13124;BME280;6627;50.920;12.050;2022-07-23T02:50:22;99268.94;;;21.21;69.47
13124;BME280;6627;50.920;12.050;2022-07-23T02:52:49;99290.97;;;21.37;69.52
13124;BME280;6627;50.920;12.050;2022-07-23T02:55:16;99225.13;;;20.65;70.86
13124;BME280;6627;50.920;12.050;2022-07-23T02:57:43;99256.63;;;20.99;70.46
13124;BME280;6627;50.920;12.050;2022-07-23T03:00:12;99203.00;;;20.46;71.17
13124;BME280;6627;50.920;12.050;2022-07-23T03:02:39;99273.94;;;21.00;70.78
13124;BME280;6627;50.920;12.050;2022-07-23T03:05:07;99284.41;;;21.10;70.46
13124;BME280;6627;50.920;12.050;2022-07-23T03:07:36;99297.66;;;21.55;69.22
13124;BME280;6627;50.920;12.050;2022-07-23T03:10:03;99244.16;;;21.21;69.39
13124;BME280;6627;50.920;12.050;2022-07-23T03:12:30;99194.16;;;21.03;68.59
13124;BME280;6627;50.920;12.050;2022-07-23T03:14:57;99221.75;;;21.07;69.63
13124;BME280;6627;50.920;12.050;2022-07-23T03:17:24;99205.47;;;20.82;70.27
13124;BME280;6627;50.920;12.050;2022-07-23T03:19:51;99190.22;;;20.69;70.53
13124;BME280;6627;50.920;12.050;2022-07-23T03:22:19;99209.53;;;20.88;70.16
13124;BME280;6627;50.920;12.050;2022-07-23T03:24:47;99191.47;;;20.56;70.99
13124;BME280;6627;50.920;12.050;2022-07-23T03:27:21;99234.41;;;21.08;70.08
13124;BME280;6627;50.920;12.050;2022-07-23T03:29:49;99185.97;;;20.56;71.13
13124;BME280;6627;50.920;12.050;2022-07-23T03:32:16;99189.44;;;20.53;71.35
13124;BME280;6627;50.920;12.050;2022-07-23T03:34:43;99175.13;;;20.31;71.70
13124;BME280;6627;50.920;12.050;2022-07-23T03:37:11;99191.75;;;20.51;71.77
13124;BME280;6627;50.920;12.050;2022-07-23T03:39:39;99178.00;;;20.51;71.07
13124;BME280;6627;50.920;12.050;2022-07-23T03:42:08;99190.38;;;20.13;72.52
13124;BME280;6627;50.920;12.050;2022-07-23T03:44:36;99224.31;;;20.49;71.86
13124;BME280;6627;50.920;12.050;2022-07-23T03:47:04;99240.56;;;20.54;71.41
13124;BME280;6627;50.920;12.050;2022-07-23T03:49:34;99256.56;;;20.64;70.93
13124;BME280;6627;50.920;12.050;2022-07-23T03:52:02;99321.56;;;20.69;70.48
13124;BME280;6627;50.920;12.050;2022-07-23T03:54:29;99327.28;;;20.20;71.10
13124;BME280;6627;50.920;12.050;2022-07-23T03:56:56;99314.50;;;19.83;72.10
13124;BME280;6627;50.920;12.050;2022-07-23T03:59:24;99309.56;;;20.05;72.13
13124;BME280;6627;50.920;12.050;2022-07-23T04:01:51;99287.13;;;20.03;71.88
13124;BME280;6627;50.920;12.050;2022-07-23T04:04:19;99300.88;;;20.03;72.16
13124;BME280;6627;50.920;12.050;2022-07-23T04:06:46;99268.69;;;19.75;72.46
13124;BME280;6627;50.920;12.050;2022-07-23T04:09:13;99252.38;;;19.82;72.47
13124;BME280;6627;50.920;12.050;2022-07-23T04:11:40;99256.69;;;19.96;72.40
13124;BME280;6627;50.920;12.050;2022-07-23T04:14:07;99255.88;;;20.23;70.64
13124;BME280;6627;50.920;12.050;2022-07-23T04:16:35;99254.41;;;20.41;70.04
13124;BME280;6627;50.920;12.050;2022-07-23T04:19:03;99261.72;;;20.50;69.76
13124;BME280;6627;50.920;12.050;2022-07-23T04:21:30;99268.19;;;20.57;69.49
13124;BME280;6627;50.920;12.050;2022-07-23T04:23:57;99169.16;;;19.98;69.42
13124;BME280;6627;50.920;12.050;2022-07-23T04:26:24;99230.56;;;20.02;70.86
13124;BME280;6627;50.920;12.050;2022-07-23T04:28:52;99259.22;;;20.60;69.86
13124;BME280;6627;50.920;12.050;2022-07-23T04:31:19;99237.53;;;20.43;69.46
13124;BME280;6627;50.920;12.050;2022-07-23T04:33:47;99208.91;;;20.16;69.72
13124;BME280;6627;50.920;12.050;2022-07-23T04:36:14;99220.84;;;19.92;71.54
13124;BME280;6627;50.920;12.050;2022-07-23T04:38:42;99231.13;;;20.23;70.86
13124;BME280;6627;50.920;12.050;2022-07-23T04:41:09;99200.78;;;20.20;69.75
13124;BME280;6627;50.920;12.050;2022-07-23T04:43:36;99210.25;;;20.22;69.69
13124;BME280;6627;50.920;12.050;2022-07-23T04:46:04;99232.97;;;20.35;69.18
13124;BME280;6627;50.920;12.050;2022-07-23T04:48:31;99238.78;;;20.77;67.74
13124;BME280;6627;50.920;12.050;2022-07-23T04:51:00;99227.03;;;20.33;68.73
13124;BME280;6627;50.920;12.050;2022-07-23T04:53:27;99271.16;;;20.36;68.33
13124;BME280;6627;50.920;12.050;2022-07-23T04:55:55;99246.09;;;20.10;68.90
13124;BME280;6627;50.920;12.050;2022-07-23T04:58:22;99219.88;;;20.00;69.15
13124;BME280;6627;50.920;12.050;2022-07-23T05:00:49;99209.28;;;19.71;69.89
13124;BME280;6627;50.920;12.050;2022-07-23T05:03:16;99188.38;;;19.82;69.50
13124;BME280;6627;50.920;12.050;2022-07-23T05:05:44;99261.34;;;20.51;68.91
13124;BME280;6627;50.920;12.050;2022-07-23T05:08:12;99211.97;;;20.74;67.02
13124;BME280;6627;50.920;12.050;2022-07-23T05:10:39;99224.97;;;21.09;66.17
13124;BME280;6627;50.920;12.050;2022-07-23T05:13:06;99171.66;;;20.66;66.58
13124;BME280;6627;50.920;12.050;2022-07-23T05:15:33;99141.31;;;20.62;66.52
13124;BME280;6627;50.920;12.050;2022-07-23T05:18:00;99161.63;;;20.58;66.76
13124;BME280;6627;50.920;12.050;2022-07-23T05:20:27;99191.03;;;20.54;67.74
13124;BME280;6627;50.920;12.050;2022-07-23T05:22:55;99225.59;;;21.02;67.01
13124;BME280;6627;50.920;12.050;2022-07-23T05:25:23;99190.25;;;21.04;66.04
13124;BME280;6627;50.920;12.050;2022-07-23T05:27:50;99233.59;;;21.07;66.63
13124;BME280;6627;50.920;12.050;2022-07-23T05:30:18;99223.09;;;21.13;65.39
13124;BME280;6627;50.920;12.050;2022-07-23T05:32:45;99247.25;;;21.35;65.55
13124;BME280;6627;50.920;12.050;2022-07-23T05:35:12;99229.28;;;21.26;65.49
13124;BME280;6627;50.920;12.050;2022-07-23T05:37:39;99127.03;;;20.57;66.18
13124;BME280;6627;50.920;12.050;2022-07-23T05:40:09;99217.22;;;21.50;65.23
13124;BME280;6627;50.920;12.050;2022-07-23T05:42:40;99164.94;;;20.99;64.94
13124;BME280;6627;50.920;12.050;2022-07-23T05:45:09;99208.44;;;21.09;65.46
13124;BME280;6627;50.920;12.050;2022-07-23T05:47:41;99219.34;;;21.21;65.30
13124;BME280;6627;50.920;12.050;2022-07-23T05:50:10;99229.72;;;21.28;65.38
13124;BME280;6627;50.920;12.050;2022-07-23T05:52:37;99203.66;;;21.06;64.90
13124;BME280;6627;50.920;12.050;2022-07-23T05:55:06;99182.00;;;20.88;65.13
13124;BME280;6627;50.920;12.050;2022-07-23T05:57:34;99253.34;;;21.45;65.29
13124;BME280;6627;50.920;12.050;2022-07-23T06:00:05;99264.41;;;21.83;63.80
13124;BME280;6627;50.920;12.050;2022-07-23T06:02:33;99270.63;;;22.00;63.37
13124;BME280;6627;50.920;12.050;2022-07-23T06:05:00;99205.91;;;21.74;63.01
13124;BME280;6627;50.920;12.050;2022-07-23T06:07:27;99184.00;;;21.42;64.18
13124;BME280;6627;50.920;12.050;2022-07-23T06:09:54;99205.47;;;21.53;64.73
13124;BME280;6627;50.920;12.050;2022-07-23T06:12:21;99245.34;;;22.17;63.93
13124;BME280;6627;50.920;12.050;2022-07-23T06:14:50;99160.34;;;21.41;64.10
13124;BME280;6627;50.920;12.050;2022-07-23T06:17:19;99223.72;;;22.00;63.56
13124;BME280;6627;50.920;12.050;2022-07-23T06:19:46;99222.09;;;22.37;62.05
13124;BME280;6627;50.920;12.050;2022-07-23T06:22:13;99118.16;;;21.57;62.42
13124;BME280;6627;50.920;12.050;2022-07-23T06:24:40;99167.84;;;21.60;63.95
13124;BME280;6627;50.920;12.050;2022-07-23T06:27:07;99154.44;;;21.39;64.45
13124;BME280;6627;50.920;12.050;2022-07-23T06:29:34;99162.25;;;21.57;64.19
13124;BME280;6627;50.920;12.050;2022-07-23T06:32:02;99188.22;;;21.36;65.72
13124;BME280;6627;50.920;12.050;2022-07-23T06:34:30;99185.19;;;21.61;64.90
13124;BME280;6627;50.920;12.050;2022-07-23T06:36:57;99184.72;;;21.78;63.72
13124;BME280;6627;50.920;12.050;2022-07-23T06:39:24;99225.13;;;21.90;65.00
13124;BME280;6627;50.920;12.050;2022-07-23T06:41:52;99433.91;;;24.54;61.41
13124;BME280;6627;50.920;12.050;2022-07-23T06:44:19;99169.31;;;24.23;56.48
13124;BME280;6627;50.920;12.050;2022-07-23T06:46:46;99154.34;;;23.90;57.29
13124;BME280;6627;50.920;12.050;2022-07-23T06:49:13;99012.91;;;22.80;58.28
13124;BME280;6627;50.920;12.050;2022-07-23T06:51:42;99151.19;;;23.88;57.66
13124;BME280;6627;50.920;12.050;2022-07-23T06:54:09;98983.03;;;22.89;58.56
13124;BME280;6627;50.920;12.050;2022-07-23T06:56:36;98996.69;;;22.49;60.25
13124;BME280;6627;50.920;12.050;2022-07-23T06:59:03;99125.50;;;23.21;60.41
13124;BME280;6627;50.920;12.050;2022-07-23T07:01:30;99032.22;;;23.88;56.91
13124;BME280;6627;50.920;12.050;2022-07-23T07:03:58;98995.88;;;22.78;59.75
13124;BME280;6627;50.920;12.050;2022-07-23T07:06:25;99250.53;;;24.82;59.04
13124;BME280;6627;50.920;12.050;2022-07-23T07:08:53;99194.19;;;27.10;51.08
13124;BME280;6627;50.920;12.050;2022-07-23T07:11:21;98817.97;;;25.16;51.26
13124;BME280;6627;50.920;12.050;2022-07-23T07:13:49;98855.22;;;23.96;55.35
13124;BME280;6627;50.920;12.050;2022-07-23T07:16:17;98766.41;;;22.90;57.15
13124;BME280;6627;50.920;12.050;2022-07-23T07:18:44;98959.53;;;23.91;56.72
13124;BME280;6627;50.920;12.050;2022-07-23T07:21:11;98981.75;;;24.06;56.70
13124;BME280;6627;50.920;12.050;2022-07-23T07:23:38;98945.34;;;23.08;58.93
13124;BME280;6627;50.920;12.050;2022-07-23T07:26:07;98956.47;;;22.81;59.49
13124;BME280;6627;50.920;12.050;2022-07-23T07:28:34;98966.19;;;22.68;60.04
13124;BME280;6627;50.920;12.050;2022-07-23T07:31:01;98983.56;;;22.69;60.36
13124;BME280;6627;50.920;12.050;2022-07-23T07:33:28;99058.28;;;23.13;59.74
13124;BME280;6627;50.920;12.050;2022-07-23T07:35:55;99015.47;;;22.66;60.43
13124;BME280;6627;50.920;12.050;2022-07-23T07:38:23;99051.81;;;22.41;62.46
13124;BME280;6627;50.920;12.050;2022-07-23T07:40:50;99044.50;;;22.03;63.63
13124;BME280;6627;50.920;12.050;2022-07-23T07:43:18;99078.84;;;22.06;63.82
13124;BME280;6627;50.920;12.050;2022-07-23T07:45:45;99129.94;;;22.46;63.25
13124;BME280;6627;50.920;12.050;2022-07-23T07:48:12;99159.84;;;22.89;61.91
13124;BME280;6627;50.920;12.050;2022-07-23T07:50:40;99190.19;;;23.16;62.01
13124;BME280;6627;50.920;12.050;2022-07-23T07:53:07;99204.78;;;23.77;60.26
13124;BME280;6627;50.920;12.050;2022-07-23T07:55:35;99283.56;;;24.57;59.11
13124;BME280;6627;50.920;12.050;2022-07-23T07:58:02;99112.63;;;23.65;58.78
13124;BME280;6627;50.920;12.050;2022-07-23T08:00:30;99158.28;;;23.22;60.93
13124;BME280;6627;50.920;12.050;2022-07-23T08:02:58;99219.75;;;24.06;59.58
13124;BME280;6627;50.920;12.050;2022-07-23T08:05:29;99169.44;;;23.97;58.65
13124;BME280;6627;50.920;12.050;2022-07-23T08:07:59;99131.06;;;23.91;58.75
13124;BME280;6627;50.920;12.050;2022-07-23T08:10:28;99117.94;;;23.85;58.66
13124;BME280;6627;50.920;12.050;2022-07-23T08:12:58;99085.75;;;23.32;59.54
13124;BME280;6627;50.920;12.050;2022-07-23T08:15:29;99161.94;;;23.97;58.62
13124;BME280;6627;50.920;12.050;2022-07-23T08:17:57;99192.66;;;24.70;57.46
13124;BME280;6627;50.920;12.050;2022-07-23T08:20:25;99174.44;;;24.69;57.48
13124;BME280;6627;50.920;12.050;2022-07-23T08:22:55;99042.06;;;23.82;57.89
13124;BME280;6627;50.920;12.050;2022-07-23T08:25:25;99071.78;;;23.92;57.82
13124;BME280;6627;50.920;12.050;2022-07-23T08:27:54;99164.47;;;24.13;59.36
13124;BME280;6627;50.920;12.050;2022-07-23T08:30:21;99095.28;;;23.72;58.66
13124;BME280;6627;50.920;12.050;2022-07-23T08:32:53;99144.53;;;23.97;59.01
13124;BME280;6627;50.920;12.050;2022-07-23T08:35:26;99160.75;;;24.39;58.21
13124;BME280;6627;50.920;12.050;2022-07-23T08:37:55;99181.75;;;24.44;58.59
13124;BME280;6627;50.920;12.050;2022-07-23T08:40:26;99146.66;;;24.55;57.53
13124;BME280;6627;50.920;12.050;2022-07-23T08:42:54;99099.47;;;23.59;59.45
13124;BME280;6627;50.920;12.050;2022-07-23T08:45:25;99170.34;;;24.08;59.12
13124;BME280;6627;50.920;12.050;2022-07-23T08:47:56;99122.19;;;23.75;59.42
13124;BME280;6627;50.920;12.050;2022-07-23T08:50:25;99107.50;;;23.34;60.42
13124;BME280;6627;50.920;12.050;2022-07-23T08:52:53;99171.28;;;23.85;59.52
13124;BME280;6627;50.920;12.050;2022-07-23T08:55:23;99140.09;;;23.51;60.00
13124;BME280;6627;50.920;12.050;2022-07-23T08:57:52;99235.59;;;24.09;60.04
13124;BME280;6627;50.920;12.050;2022-07-23T09:00:21;99197.34;;;24.18;59.18
13124;BME280;6627;50.920;12.050;2022-07-23T09:02:49;99180.09;;;23.95;59.29
13124;BME280;6627;50.920;12.050;2022-07-23T09:05:19;99194.84;;;23.72;60.03
13124;BME280;6627;50.920;12.050;2022-07-23T09:08:07;99202.81;;;23.74;60.53
13124;BME280;6627;50.920;12.050;2022-07-23T09:10:49;99251.59;;;24.26;59.85
13124;BME280;6627;50.920;12.050;2022-07-23T09:13:41;99229.56;;;24.37;59.20
13124;BME280;6627;50.920;12.050;2022-07-23T09:16:13;99158.84;;;23.65;60.32
13124;BME280;6627;50.920;12.050;2022-07-23T09:18:45;99212.13;;;24.36;58.85
13124;BME280;6627;50.920;12.050;2022-07-23T09:21:21;99233.44;;;24.32;59.89
13124;BME280;6627;50.920;12.050;2022-07-23T09:23:53;99200.59;;;24.27;59.37
13124;BME280;6627;50.920;12.050;2022-07-23T09:26:27;99202.31;;;24.02;59.76
13124;BME280;6627;50.920;12.050;2022-07-23T09:29:00;99160.06;;;23.37;61.24
13124;BME280;6627;50.920;12.050;2022-07-23T09:31:34;99167.13;;;23.05;62.73
13124;BME280;6627;50.920;12.050;2022-07-23T09:34:10;99284.63;;;24.08;62.11
13124;BME280;6627;50.920;12.050;2022-07-23T09:36:40;99256.97;;;24.12;60.99
13124;BME280;6627;50.920;12.050;2022-07-23T09:39:08;99233.31;;;23.51;62.24
13124;BME280;6627;50.920;12.050;2022-07-23T09:41:39;99242.84;;;23.57;62.65
13124;BME280;6627;50.920;12.050;2022-07-23T09:44:13;99223.56;;;23.30;63.12
13124;BME280;6627;50.920;12.050;2022-07-23T09:46:42;99231.66;;;23.16;63.25
13124;BME280;6627;50.920;12.050;2022-07-23T09:49:19;99269.56;;;23.46;62.51
13124;BME280;6627;50.920;12.050;2022-07-23T09:51:52;99309.97;;;23.80;62.36
13124;BME280;6627;50.920;12.050;2022-07-23T09:54:29;99246.53;;;23.08;63.52
13124;BME280;6627;50.920;12.050;2022-07-23T09:57:00;99302.44;;;23.24;64.29
13124;BME280;6627;50.920;12.050;2022-07-23T09:59:31;99262.06;;;23.16;63.55
13124;BME280;6627;50.920;12.050;2022-07-23T10:02:00;99286.25;;;23.00;64.53
13124;BME280;6627;50.920;12.050;2022-07-23T10:04:29;99304.34;;;22.94;65.76
13124;BME280;6627;50.920;12.050;2022-07-23T10:06:59;99329.16;;;23.16;65.01
13124;BME280;6627;50.920;12.050;2022-07-23T10:09:30;99318.59;;;23.49;63.42
13124;BME280;6627;50.920;12.050;2022-07-23T10:11:59;99307.47;;;23.19;64.31
13124;BME280;6627;50.920;12.050;2022-07-23T10:14:44;99333.41;;;23.63;63.44
13124;BME280;6627;50.920;12.050;2022-07-23T10:17:11;99306.03;;;23.55;63.18
13124;BME280;6627;50.920;12.050;2022-07-23T10:19:39;99294.78;;;23.40;63.35
13124;BME280;6627;50.920;12.050;2022-07-23T10:22:11;99336.09;;;23.83;62.73
13124;BME280;6627;50.920;12.050;2022-07-23T10:24:55;99359.63;;;24.00;62.50
13124;BME280;6627;50.920;12.050;2022-07-23T10:30:32;99347.88;;;24.10;62.12
13124;BME280;6627;50.920;12.050;2022-07-23T10:33:17;99384.84;;;24.55;61.51
13124;BME280;6627;50.920;12.050;2022-07-23T10:35:53;99343.34;;;24.28;61.80
13124;BME280;6627;50.920;12.050;2022-07-23T10:38:31;99318.84;;;24.30;61.49
13124;BME280;6627;50.920;12.050;2022-07-23T10:41:02;99326.78;;;24.32;62.00
13124;BME280;6627;50.920;12.050;2022-07-23T10:43:31;99377.72;;;24.54;62.13
13124;BME280;6627;50.920;12.050;2022-07-23T10:46:22;99361.41;;;24.86;60.86
13124;BME280;6627;50.920;12.050;2022-07-23T10:49:25;99329.38;;;24.88;59.54
13124;BME280;6627;50.920;12.050;2022-07-23T10:52:24;99361.06;;;25.35;58.67
13124;BME280;6627;50.920;12.050;2022-07-23T10:54:55;99340.59;;;25.58;57.83
13124;BME280;6627;50.920;12.050;2022-07-23T10:57:25;99312.09;;;25.61;57.94
13124;BME280;6627;50.920;12.050;2022-07-23T11:00:20;99333.75;;;26.07;57.27
13124;BME280;6627;50.920;12.050;2022-07-23T11:02:49;99280.50;;;25.83;57.10
13124;BME280;6627;50.920;12.050;2022-07-23T11:05:20;99249.63;;;25.96;56.24
13124;BME280;6627;50.920;12.050;2022-07-23T11:08:18;99174.28;;;25.03;57.60
13124;BME280;6627;50.920;12.050;2022-07-23T11:10:54;99222.91;;;24.97;58.46
13124;BME280;6627;50.920;12.050;2022-07-23T11:13:38;99241.25;;;25.08;58.76
13124;BME280;6627;50.920;12.050;2022-07-23T11:16:23;99149.50;;;24.21;59.34
13124;BME280;6627;50.920;12.050;2022-07-23T11:19:14;99253.13;;;25.09;58.44
13124;BME280;6627;50.920;12.050;2022-07-23T11:21:47;99289.75;;;25.36;58.33
13124;BME280;6627;50.920;12.050;2022-07-23T11:24:23;99277.59;;;25.62;57.33
13124;BME280;6627;50.920;12.050;2022-07-23T11:27:03;99256.66;;;25.75;56.66
13124;BME280;6627;50.920;12.050;2022-07-23T11:29:48;99229.53;;;25.33;57.39
13124;BME280;6627;50.920;12.050;2022-07-23T11:35:23;99188.75;;;25.40;56.22
13124;BME280;6627;50.920;12.050;2022-07-23T11:37:52;99284.22;;;26.23;55.67
13124;BME280;6627;50.920;12.050;2022-07-23T11:40:25;99138.41;;;25.35;55.67
13124;BME280;6627;50.920;12.050;2022-07-23T11:42:58;99278.38;;;26.71;55.01
13124;BME280;6627;50.920;12.050;2022-07-23T11:45:32;99192.97;;;26.32;54.80
13124;BME280;6627;50.920;12.050;2022-07-23T11:48:00;99165.97;;;26.01;55.92
13124;BME280;6627;50.920;12.050;2022-07-23T11:50:27;99137.84;;;26.31;54.10
13124;BME280;6627;50.920;12.050;2022-07-23T11:52:55;99164.81;;;26.23;54.71
13124;BME280;6627;50.920;12.050;2022-07-23T11:55:22;99200.53;;;26.78;53.76
13124;BME280;6627;50.920;12.050;2022-07-23T11:57:52;99194.13;;;27.24;53.18
13124;BME280;6627;50.920;12.050;2022-07-23T12:00:24;99058.88;;;26.46;53.43
13124;BME280;6627;50.920;12.050;2022-07-23T12:02:53;99083.88;;;26.35;54.18
13124;BME280;6627;50.920;12.050;2022-07-23T12:05:25;99126.66;;;27.09;52.72
13124;BME280;6627;50.920;12.050;2022-07-23T12:07:55;99117.28;;;27.59;51.33
13124;BME280;6627;50.920;12.050;2022-07-23T12:10:25;99063.72;;;27.40;51.26
13124;BME280;6627;50.920;12.050;2022-07-23T12:12:56;99030.75;;;27.35;50.86
13124;BME280;6627;50.920;12.050;2022-07-23T12:15:27;99021.63;;;27.31;51.18
13124;BME280;6627;50.920;12.050;2022-07-23T12:17:59;98966.88;;;27.21;50.61
13124;BME280;6627;50.920;12.050;2022-07-23T12:20:33;99010.91;;;27.33;51.27
13124;BME280;6627;50.920;12.050;2022-07-23T12:23:03;99048.41;;;27.70;51.02
13124;BME280;6627;50.920;12.050;2022-07-23T12:25:34;98920.09;;;27.02;50.69
13124;BME280;6627;50.920;12.050;2022-07-23T12:28:06;98946.47;;;26.72;51.34
13124;BME280;6627;50.920;12.050;2022-07-23T12:30:39;99022.56;;;27.03;52.30
13124;BME280;6627;50.920;12.050;2022-07-23T12:33:10;98939.34;;;26.64;51.61
13124;BME280;6627;50.920;12.050;2022-07-23T12:35:41;98888.75;;;26.10;52.59
13124;BME280;6627;50.920;12.050;2022-07-23T12:38:11;98988.50;;;26.81;52.55
13124;BME280;6627;50.920;12.050;2022-07-23T12:40:44;99026.13;;;27.00;52.41
13124;BME280;6627;50.920;12.050;2022-07-23T12:43:21;98997.34;;;26.62;53.07
13124;BME280;6627;50.920;12.050;2022-07-23T12:45:53;99009.69;;;26.36;53.75
13124;BME280;6627;50.920;12.050;2022-07-23T12:48:24;99000.56;;;26.25;53.82
13124;BME280;6627;50.920;12.050;2022-07-23T12:50:55;99099.69;;;26.88;53.42
13124;BME280;6627;50.920;12.050;2022-07-23T12:53:26;99042.56;;;26.59;53.31
13124;BME280;6627;50.920;12.050;2022-07-23T12:56:04;98960.19;;;25.77;54.55
13124;BME280;6627;50.920;12.050;2022-07-23T12:58:45;99052.16;;;25.97;55.63
13124;BME280;6627;50.920;12.050;2022-07-23T13:01:26;99037.88;;;26.06;55.00
13124;BME280;6627;50.920;12.050;2022-07-23T13:03:59;99064.81;;;25.80;56.40
13124;BME280;6627;50.920;12.050;2022-07-23T13:06:28;99152.13;;;26.36;55.56
13124;BME280;6627;50.920;12.050;2022-07-23T13:08:56;99168.78;;;26.79;54.47
13124;BME280;6627;50.920;12.050;2022-07-23T13:11:23;99112.78;;;26.77;53.61
13124;BME280;6627;50.920;12.050;2022-07-23T13:13:50;99219.47;;;27.58;53.31
13124;BME280;6627;50.920;12.050;2022-07-23T13:16:18;99079.06;;;26.79;53.23
13124;BME280;6627;50.920;12.050;2022-07-23T13:18:47;99119.38;;;27.33;52.53